カラチ の空港の天気 - METARとTAF

ジンナー国際空港(カラチ) ( OPKC / KHI ) - パキスタン Karachi
飛行場実況気象(Metar)
観測時間12/14 10:55 PKT (12/14 05:55 UTC)
風向・風速東北東 5m/s
視程4000m
天気現象煙霧
なし
気温22℃
湿度31%
気圧1025hPa
METAROPKC 140555Z 06010KT 4000 HZ NSC 22/04 Q1025 NOSIG
過去の天気等 Google飛行場航空写真 Wunderground天気予報

過去48時間のMETAR

飛行場予報(TAF)
発表時間: 12/14 09:00 PKT (12/14 04:00 UTC)
予報対象時間: 14日11時 PKT ~ 15日17時 PKT
風向・風速東北東 5m/s 瞬間風速 10m/s
視程6000m
なし
14日23時 PKT ~ 15日1時 PKT に徐々に
風向・風速東北東 8m/s 瞬間風速 8m/s
視程4000m
天気現象煙霧
なし
TAF OPKC 140400Z 1406/1512 06010G20KT 6000 NSC
BECMG 1418/1420 07015G15KT 4000 HZ NSC